Huntley, Montana
Current Conditions -  °F | °C
As of 1:53 AM on Wednesday 26 Nov 2014 (Local Time) from KBIL Reporting Station
Light Snow Light Snow  
Wind Chill: 21°   Ceiling: 200
Heat Index: 29°   Visibility: 2mi
Dew Point: 27°   Wind: 8mph
Humidity: 92%   Direction: 230°SW
Pressure: 30.18"   Gusts: NA
Location:  45.9°N, 108.3°W
Report Text: KBIL 260853Z 23007KT 2SM -SN BR BKN002 OVC017 M02/M03 A3018 RMK AO2 SLP250 P0002 60002 T10171028 51004 $
Loading
Personal Weather Stations






























Interactive Weather Map New forecast layout! Learn more

10-Day Weather Forecast

Advertisements
Track Severe Weather on mobile